Time;durP1;ratioP1;P1;durP2;ratioP2;P2;SDS_P1;SDS_P2;PMS_P1;PMS_P2;Temp;Humidity;BMP_temperature;BMP_pressure;BME280_temperature;BME280_humidity;BME280_pressure;Samples;Min_cycle;Max_cycle;Signal;HPM_P1;HPM_P2
2021/01/09 00:01:47;;;;;;;25.17;12.03;;;;;;;0.33;100.00;96341.63;5000197;28;20203;-69
2021/01/09 00:04:13;;;;;;;25.73;11.60;;;;;;;0.30;100.00;96335.84;5000196;28;20229;-69
2021/01/09 00:06:40;;;;;;;26.23;12.13;;;;;;;0.25;100.00;96341.34;4998904;28;20204;-68
2021/01/09 00:09:07;;;;;;;25.53;11.73;;;;;;;0.28;100.00;96337.72;5000766;28;20985;-69
2021/01/09 00:11:34;;;;;;;22.83;10.63;;;;;;;0.29;100.00;96350.53;5000109;28;20202;-69
2021/01/09 00:14:00;;;;;;;27.30;12.17;;;;;;;0.38;100.00;96352.50;4999526;28;20257;-69
2021/01/09 00:16:26;;;;;;;27.53;12.30;;;;;;;0.36;100.00;96346.59;4999048;28;20208;-70
2021/01/09 00:18:52;;;;;;;27.20;12.83;;;;;;;0.35;100.00;96344.09;4999976;28;20205;-69
2021/01/09 00:21:18;;;;;;;26.47;11.80;;;;;;;0.35;100.00;96344.94;4999552;28;20241;-69
2021/01/09 00:23:44;;;;;;;25.73;12.00;;;;;;;0.33;100.00;96338.19;4999296;28;20276;-69
2021/01/09 00:26:11;;;;;;;28.03;12.27;;;;;;;0.34;100.00;96350.22;4999018;28;20570;-69
2021/01/09 00:28:37;;;;;;;24.97;12.30;;;;;;;0.20;100.00;96351.22;4999484;28;20232;-69
2021/01/09 00:31:05;;;;;;;29.47;12.43;;;;;;;0.21;100.00;96352.88;4999424;28;20306;-69
2021/01/09 00:33:32;;;;;;;27.53;12.17;;;;;;;0.21;100.00;96347.69;4999474;28;20203;-69
2021/01/09 00:35:58;;;;;;;27.47;11.87;;;;;;;0.23;100.00;96353.63;4999591;28;20214;-69
2021/01/09 00:38:24;;;;;;;25.10;12.30;;;;;;;0.21;100.00;96342.53;4999135;28;20207;-69
2021/01/09 00:40:50;;;;;;;26.87;12.53;;;;;;;0.19;100.00;96346.16;4999975;28;20921;-70
2021/01/09 00:43:16;;;;;;;25.30;11.97;;;;;;;0.21;100.00;96341.72;4998885;28;20784;-69
2021/01/09 00:45:43;;;;;;;27.00;12.17;;;;;;;0.22;100.00;96339.00;4998426;28;20225;-69
2021/01/09 00:48:09;;;;;;;31.70;13.20;;;;;;;0.26;100.00;96345.59;4999086;28;20195;-69
2021/01/09 00:50:35;;;;;;;25.70;12.47;;;;;;;0.30;100.00;96341.84;4999580;28;20199;-69
2021/01/09 00:53:01;;;;;;;26.40;12.07;;;;;;;0.33;100.00;96354.59;4999188;28;20244;-69
2021/01/09 00:55:27;;;;;;;28.17;12.50;;;;;;;0.24;100.00;96344.06;4998211;28;20447;-69
2021/01/09 00:57:53;;;;;;;26.73;12.30;;;;;;;0.14;100.00;96349.09;4999079;28;20218;-68
2021/01/09 01:00:20;;;;;;;27.87;11.73;;;;;;;0.24;100.00;96344.91;4999063;28;20233;-69
2021/01/09 01:02:46;;;;;;;22.77;11.57;;;;;;;0.32;100.00;96345.16;4998636;28;20212;-69
2021/01/09 01:05:12;;;;;;;26.20;12.73;;;;;;;0.29;100.00;96350.53;4998343;28;20236;-69
2021/01/09 01:07:38;;;;;;;24.37;10.67;;;;;;;0.34;100.00;96340.69;4998343;28;20240;-69
2021/01/09 01:10:05;;;;;;;27.00;11.73;;;;;;;0.13;100.00;96347.44;4998816;28;20815;-69
2021/01/09 01:12:32;;;;;;;26.67;12.03;;;;;;;0.10;100.00;96352.84;4999214;28;20212;-69
2021/01/09 01:14:58;;;;;;;24.17;10.77;;;;;;;0.13;100.00;96344.84;4998486;28;20219;-69
2021/01/09 01:17:25;;;;;;;23.77;11.27;;;;;;;0.16;100.00;96348.97;4998781;28;20209;-69
2021/01/09 01:19:50;;;;;;;26.73;11.57;;;;;;;0.17;100.00;96346.28;4998617;28;20332;-69
2021/01/09 01:22:16;;;;;;;25.47;11.37;;;;;;;0.09;100.00;96348.59;4999278;28;20207;-68
2021/01/09 01:24:42;;;;;;;29.20;12.67;;;;;;;0.27;100.00;96354.22;4998253;28;20277;-69
2021/01/09 01:27:08;;;;;;;24.23;11.10;;;;;;;0.25;100.00;96353.50;4997424;28;20211;-68
2021/01/09 01:29:34;;;;;;;27.43;12.23;;;;;;;0.15;100.00;96353.34;4998770;28;20200;-69
2021/01/09 01:32:00;;;;;;;24.43;11.10;;;;;;;0.20;100.00;96353.81;4998537;28;20259;-69
2021/01/09 01:34:27;;;;;;;26.17;11.43;;;;;;;0.19;100.00;96359.97;4997901;28;20427;-69
2021/01/09 01:36:53;;;;;;;25.10;11.87;;;;;;;0.04;100.00;96355.88;4998247;28;20610;-69
2021/01/09 01:39:19;;;;;;;21.67;10.43;;;;;;;0.10;100.00;96363.22;4997794;28;20262;-70
2021/01/09 01:41:45;;;;;;;22.80;11.00;;;;;;;0.07;100.00;96360.81;4998259;28;20214;-68
2021/01/09 01:44:11;;;;;;;22.33;11.37;;;;;;;0.23;100.00;96352.75;4998062;28;20237;-69
2021/01/09 01:46:37;;;;;;;21.77;10.73;;;;;;;0.27;100.00;96362.81;4997755;28;20271;-69
2021/01/09 01:49:03;;;;;;;24.60;11.17;;;;;;;0.34;100.00;96358.81;4995974;28;20703;-69
2021/01/09 01:51:30;;;;;;;24.97;11.20;;;;;;;0.31;100.00;96364.22;4997911;28;20198;-69
2021/01/09 01:53:57;;;;;;;25.80;11.53;;;;;;;0.37;100.00;96362.94;4997606;28;20228;-69
2021/01/09 01:56:23;;;;;;;23.53;11.17;;;;;;;0.42;100.00;96361.69;4997571;28;20272;-68
2021/01/09 01:58:49;;;;;;;24.30;10.60;;;;;;;0.34;100.00;96353.63;4997263;28;20206;-68
2021/01/09 02:01:16;;;;;;;20.63;10.50;;;;;;;0.36;100.00;96369.09;4997803;28;20216;-69
2021/01/09 02:03:42;;;;;;;25.03;11.40;;;;;;;0.29;100.00;96368.69;4998036;28;20243;-69
2021/01/09 02:06:12;;;;;;;23.50;11.13;;;;;;;0.35;100.00;96367.44;4996931;28;20264;-69
2021/01/09 02:08:44;;;;;;;22.90;10.70;;;;;;;0.23;100.00;96366.56;4997714;28;20222;-69
2021/01/09 02:11:20;;;;;;;21.67;11.00;;;;;;;0.17;100.00;96372.19;4998119;28;20207;-69
2021/01/09 02:13:50;;;;;;;24.20;11.37;;;;;;;0.15;100.00;96368.91;4997812;28;20567;-69
2021/01/09 02:16:16;;;;;;;23.30;10.37;;;;;;;0.11;100.00;96367.44;4995798;28;20284;-69
2021/01/09 02:18:43;;;;;;;21.93;10.40;;;;;;;0.21;100.00;96365.84;4997201;28;20213;-69
2021/01/09 02:21:19;;;;;;;24.57;10.80;;;;;;;0.11;100.00;96367.44;4997310;28;20206;-69
2021/01/09 02:23:46;;;;;;;24.67;11.40;;;;;;;0.25;100.00;96372.44;4998367;28;20254;-69
2021/01/09 02:26:12;;;;;;;23.57;11.07;;;;;;;0.19;100.00;96372.91;4996976;28;20217;-69
2021/01/09 02:28:39;;;;;;;23.70;11.17;;;;;;;0.23;100.00;96373.50;4997538;28;20209;-69
2021/01/09 02:31:05;;;;;;;22.53;10.70;;;;;;;0.26;100.00;96370.69;4997280;28;20212;-69
2021/01/09 02:33:35;;;;;;;19.43;10.43;;;;;;;0.27;100.00;96373.19;4997872;28;20205;-69
2021/01/09 02:36:02;;;;;;;24.50;10.60;;;;;;;0.36;100.00;96371.69;4996045;28;20208;-70
2021/01/09 02:38:28;;;;;;;22.17;10.10;;;;;;;0.35;100.00;96364.84;4997122;28;20206;-69
2021/01/09 02:40:55;;;;;;;23.57;11.03;;;;;;;0.50;100.00;96364.53;4997497;28;20213;-69
2021/01/09 02:43:26;;;;;;;23.77;10.87;;;;;;;0.27;100.00;96364.59;4997520;28;20205;-69
2021/01/09 02:45:52;;;;;;;23.97;10.47;;;;;;;0.38;100.00;96364.59;4995776;28;20348;-69
2021/01/09 02:48:18;;;;;;;24.00;11.10;;;;;;;0.29;100.00;96373.06;4997352;28;20305;-69
2021/01/09 02:50:44;;;;;;;23.30;11.23;;;;;;;0.28;100.00;96368.81;4997109;28;20209;-69
2021/01/09 02:53:10;;;;;;;23.23;10.73;;;;;;;0.29;100.00;96368.69;4997018;28;20232;-69
2021/01/09 02:55:36;;;;;;;25.03;10.83;;;;;;;0.40;100.00;96360.97;4996441;28;20561;-69
2021/01/09 02:58:03;;;;;;;22.57;10.80;;;;;;;0.43;100.00;96365.91;4997447;28;20668;-69
2021/01/09 03:00:29;;;;;;;22.83;10.97;;;;;;;0.48;100.00;96363.81;4997058;28;20213;-68
2021/01/09 03:02:55;;;;;;;24.10;11.10;;;;;;;0.37;100.00;96374.16;4996999;28;20244;-69
2021/01/09 03:05:21;;;;;;;21.80;10.97;;;;;;;0.43;100.00;96372.88;4996454;28;20239;-68
2021/01/09 03:07:47;;;;;;;26.67;11.33;;;;;;;0.48;100.00;96370.78;4996759;28;20280;-69
2021/01/09 03:10:13;;;;;;;21.73;11.50;;;;;;;0.50;100.00;96374.91;4996872;28;20355;-69
2021/01/09 03:12:39;;;;;;;23.10;11.13;;;;;;;0.58;100.00;96375.97;4995505;28;20977;-69
2021/01/09 03:15:07;;;;;;;23.77;11.60;;;;;;;0.54;100.00;96376.31;4996807;28;20299;-68
2021/01/09 03:17:33;;;;;;;22.50;10.57;;;;;;;0.48;100.00;96387.13;4996371;28;20337;-69
2021/01/09 03:19:59;;;;;;;24.57;10.83;;;;;;;0.32;100.00;96386.63;4996888;28;20299;-71
2021/01/09 03:22:25;;;;;;;23.53;10.87;;;;;;;0.39;100.00;96392.19;4997283;28;20200;-69
2021/01/09 03:24:51;;;;;;;24.57;11.17;;;;;;;0.23;100.00;96395.06;4996884;28;20715;-68
2021/01/09 03:27:17;;;;;;;23.60;11.23;;;;;;;0.22;100.00;96398.59;4996269;28;20773;-69
2021/01/09 03:29:42;;;;;;;22.93;11.43;;;;;;;0.35;100.00;96395.94;4996770;28;20712;-69
2021/01/09 03:32:09;;;;;;;25.20;11.47;;;;;;;0.37;100.00;96394.88;4997712;28;20224;-69
2021/01/09 03:34:35;;;;;;;26.17;12.00;;;;;;;0.49;100.00;96399.16;4996104;28;20218;-69
2021/01/09 03:37:01;;;;;;;23.10;10.97;;;;;;;0.36;100.00;96401.00;4996500;28;20202;-69
2021/01/09 03:39:27;;;;;;;23.43;11.53;;;;;;;0.23;100.00;96405.44;4996582;28;20231;-70
2021/01/09 03:41:53;;;;;;;28.03;11.87;;;;;;;0.32;100.00;96402.16;4996538;28;20237;-70
2021/01/09 03:44:19;;;;;;;22.20;10.70;;;;;;;0.37;100.00;96404.41;4996290;28;20269;-69
2021/01/09 03:46:45;;;;;;;22.90;11.07;;;;;;;0.42;100.00;96403.16;4996575;28;20260;-69
2021/01/09 03:49:12;;;;;;;25.97;11.70;;;;;;;0.32;100.00;96404.75;4997051;28;20596;-69
2021/01/09 03:51:38;;;;;;;23.67;11.37;;;;;;;0.33;100.00;96403.00;4996341;28;20205;-69
2021/01/09 03:54:04;;;;;;;22.43;10.97;;;;;;;0.33;100.00;96403.00;4996196;28;20278;-69
2021/01/09 03:56:30;;;;;;;24.37;11.63;;;;;;;0.24;100.00;96406.25;4996253;28;20720;-69
2021/01/09 03:58:56;;;;;;;21.80;10.57;;;;;;;0.17;100.00;96407.63;4996335;28;20274;-69
2021/01/09 04:01:22;;;;;;;24.07;12.03;;;;;;;0.25;100.00;96405.31;4996558;28;20206;-68
2021/01/09 04:03:48;;;;;;;24.37;11.47;;;;;;;0.26;100.00;96396.59;4999148;28;20699;-69
2021/01/09 04:06:14;;;;;;;25.57;11.47;;;;;;;0.36;100.00;96403.59;4998945;28;20316;-69
2021/01/09 04:08:40;;;;;;;23.47;11.57;;;;;;;0.39;100.00;96398.19;4999842;28;20267;-70
2021/01/09 04:11:06;;;;;;;27.60;12.53;;;;;;;0.47;100.00;96400.22;5000010;28;20613;-69
2021/01/09 04:13:32;;;;;;;20.43;10.47;;;;;;;0.53;100.00;96398.00;5000081;28;20232;-68
2021/01/09 04:16:02;;;;;;;24.73;11.80;;;;;;;0.44;100.00;96395.25;4998943;28;20205;-69
2021/01/09 04:18:28;;;;;;;24.13;11.23;;;;;;;0.56;100.00;96395.19;5000107;28;20210;-69
2021/01/09 04:20:54;;;;;;;23.07;11.83;;;;;;;0.53;100.00;96400.59;4999674;28;20217;-69
2021/01/09 04:23:21;;;;;;;24.80;11.13;;;;;;;0.42;100.00;96392.78;4999591;28;20210;-68
2021/01/09 04:25:46;;;;;;;26.60;12.17;;;;;;;0.42;100.00;96403.16;4998886;28;20994;-69
2021/01/09 04:28:12;;;;;;;26.77;11.80;;;;;;;0.33;100.00;96395.22;5000159;28;20206;-70
2021/01/09 04:30:38;;;;;;;22.57;10.30;;;;;;;0.23;100.00;96392.47;4998994;28;20206;-69
2021/01/09 04:33:05;;;;;;;29.90;12.13;;;;;;;0.21;100.00;96388.34;5000361;28;20714;-69
2021/01/09 04:35:31;;;;;;;24.77;11.80;;;;;;;0.22;100.00;96392.59;4998408;28;20307;-68
2021/01/09 04:37:56;;;;;;;23.97;11.20;;;;;;;0.30;100.00;96393.66;4999725;28;20670;-69
2021/01/09 04:40:23;;;;;;;24.57;11.33;;;;;;;0.25;100.00;96395.75;4999293;28;20289;-68
2021/01/09 04:42:49;;;;;;;24.33;11.33;;;;;;;0.37;100.00;96400.06;4999534;28;20233;-69
2021/01/09 04:45:16;;;;;;;25.60;11.67;;;;;;;0.15;100.00;96394.81;4998879;28;20233;-69
2021/01/09 04:47:44;;;;;;;24.90;12.10;;;;;;;0.27;100.00;96395.69;4999022;28;20316;-69
2021/01/09 04:50:12;;;;;;;28.43;13.17;;;;;;;0.26;100.00;96402.59;4999277;28;20240;-70
2021/01/09 04:52:39;;;;;;;25.47;12.17;;;;;;;0.20;100.00;96400.44;4999218;28;20201;-69
2021/01/09 04:55:06;;;;;;;24.50;11.90;;;;;;;0.07;100.00;96407.47;4998246;28;20709;-69
2021/01/09 04:57:33;;;;;;;28.57;11.87;;;;;;;0.19;100.00;96411.78;4999224;28;20214;-68
2021/01/09 04:59:59;;;;;;;26.03;11.43;;;;;;;0.11;100.00;96408.88;4999727;28;20256;-68
2021/01/09 05:02:26;;;;;;;21.97;11.07;;;;;;;0.09;100.00;96407.38;4998835;28;20581;-69
2021/01/09 05:04:52;;;;;;;28.57;12.27;;;;;;;0.14;100.00;96408.69;4998585;28;20231;-69
2021/01/09 05:07:19;;;;;;;24.87;11.77;;;;;;;0.14;100.00;96403.50;4998233;28;20213;-70
2021/01/09 05:09:45;;;;;;;24.37;11.57;;;;;;;0.14;100.00;96407.84;4999417;28;20211;-69
2021/01/09 05:12:10;;;;;;;24.13;11.57;;;;;;;0.10;100.00;96409.00;4998459;28;20202;-69
2021/01/09 05:14:38;;;;;;;21.83;11.20;;;;;;;0.22;100.00;96414.13;4998042;28;20221;-69
2021/01/09 05:17:04;;;;;;;25.20;11.57;;;;;;;0.25;100.00;96411.31;4998446;28;20202;-70
2021/01/09 05:19:31;;;;;;;26.50;12.07;;;;;;;0.19;100.00;96419.56;4998295;28;20236;-69
2021/01/09 05:21:58;;;;;;;28.87;12.33;;;;;;;0.16;100.00;96416.34;4998612;28;20260;-69
2021/01/09 05:24:25;;;;;;;27.73;11.90;;;;;;;0.11;100.00;96414.06;4998485;28;21099;-69
2021/01/09 05:26:53;;;;;;;25.17;11.77;;;;;;;0.09;100.00;96428.91;4997206;28;20204;-70
2021/01/09 05:29:20;;;;;;;26.23;12.07;;;;;;;0.02;100.00;96422.50;4998802;28;20205;-69
2021/01/09 05:31:48;;;;;;;25.53;11.80;;;;;;;-0.02;100.00;96413.28;4998585;28;20216;-69
2021/01/09 05:34:14;;;;;;;26.53;12.03;;;;;;;0.04;100.00;96418.06;4998407;28;20228;-70
2021/01/09 05:36:40;;;;;;;25.07;11.57;;;;;;;0.10;100.00;96417.63;4997141;28;20206;-69
2021/01/09 05:39:06;;;;;;;29.20;12.73;;;;;;;0.12;100.00;96414.91;4998795;28;20215;-69
2021/01/09 05:41:33;;;;;;;28.63;12.77;;;;;;;0.06;100.00;96426.56;4998113;28;20360;-69
2021/01/09 05:44:00;;;;;;;29.27;12.97;;;;;;;0.16;100.00;96424.13;4997807;28;20276;-69
2021/01/09 05:46:28;;;;;;;34.97;17.70;;;;;;;0.06;100.00;96425.72;4997244;28;20708;-69
2021/01/09 05:48:55;;;;;;;29.33;14.33;;;;;;;0.16;100.00;96431.88;4998033;28;20208;-69
2021/01/09 05:51:22;;;;;;;28.97;13.33;;;;;;;0.21;100.00;96438.38;4998679;28;20202;-69
2021/01/09 05:53:48;;;;;;;26.10;12.93;;;;;;;0.21;100.00;96435.78;4998218;28;20205;-70
2021/01/09 05:56:16;;;;;;;26.87;13.10;;;;;;;0.20;100.00;96439.31;4997741;28;20213;-69
2021/01/09 05:58:42;;;;;;;26.40;13.00;;;;;;;0.19;100.00;96442.03;4997701;28;20212;-69
2021/01/09 06:01:10;;;;;;;42.50;18.77;;;;;;;0.24;100.00;96435.59;4998768;28;20612;-70
2021/01/09 06:03:41;;;;;;;33.47;14.53;;;;;;;0.05;100.00;96444.75;4997100;28;20674;-70
2021/01/09 06:06:22;;;;;;;29.40;14.20;;;;;;;0.22;100.00;96442.63;4997300;28;20230;-69
2021/01/09 06:08:53;;;;;;;29.00;14.07;;;;;;;0.33;100.00;96437.53;4997935;28;20215;-70
2021/01/09 06:11:28;;;;;;;27.97;12.93;;;;;;;0.31;100.00;96447.16;4998906;28;20226;-70
2021/01/09 06:13:58;;;;;;;29.07;12.77;;;;;;;0.21;100.00;96435.78;4996580;28;20245;-70
2021/01/09 06:16:25;;;;;;;26.57;12.73;;;;;;;0.11;100.00;96439.97;4996695;28;20669;-69
2021/01/09 06:18:51;;;;;;;29.00;13.67;;;;;;;0.25;100.00;96437.22;4997849;28;20200;-69
2021/01/09 06:21:20;;;;;;;26.53;11.93;;;;;;;0.32;100.00;96443.63;4998162;28;20208;-69
2021/01/09 06:23:46;;;;;;;25.70;12.00;;;;;;;0.29;100.00;96441.25;4997287;28;20217;-69
2021/01/09 06:26:15;;;;;;;26.53;11.80;;;;;;;0.24;100.00;96445.97;4996666;28;20236;-70
2021/01/09 06:28:46;;;;;;;26.10;12.33;;;;;;;0.09;100.00;96454.81;4997376;28;20206;-70
2021/01/09 06:31:18;;;;;;;27.27;12.10;;;;;;;0.17;100.00;96446.50;4997815;28;20214;-69
2021/01/09 06:33:47;;;;;;;28.63;12.80;;;;;;;0.36;100.00;96439.88;4997540;28;20201;-69
2021/01/09 06:36:15;;;;;;;26.30;12.10;;;;;;;0.26;100.00;96458.78;4996963;28;20636;-69
2021/01/09 06:38:43;;;;;;;29.50;13.00;;;;;;;0.12;100.00;96452.00;4996797;28;20216;-69
2021/01/09 06:41:13;;;;;;;27.83;12.77;;;;;;;-0.21;100.00;96457.91;4997797;28;20909;-70
2021/01/09 06:43:43;;;;;;;28.93;13.20;;;;;;;-0.18;100.00;96460.28;4996989;28;20202;-69
2021/01/09 06:46:11;;;;;;;33.13;13.70;;;;;;;-0.23;100.00;96454.59;4996620;28;20258;-69
2021/01/09 06:48:38;;;;;;;32.03;14.73;;;;;;;-0.34;100.00;96451.94;4996816;28;20237;-70
2021/01/09 06:51:41;;;;;;;33.93;15.00;;;;;;;-0.51;100.00;96455.69;4997330;28;20600;-70
2021/01/09 06:54:24;;;;;;;29.67;12.93;;;;;;;-0.74;100.00;96458.19;4996776;28;20281;-69
2021/01/09 06:56:51;;;;;;;30.23;13.73;;;;;;;-0.82;100.00;96455.28;4996667;28;20258;-69
2021/01/09 06:59:31;;;;;;;30.57;13.57;;;;;;;-0.79;100.00;96449.09;4997617;28;20211;-68
2021/01/09 07:02:14;;;;;;;30.23;13.57;;;;;;;-0.91;100.00;96455.91;4996741;28;20203;-70
2021/01/09 07:04:59;;;;;;;28.67;13.33;;;;;;;-1.08;100.00;96452.81;4997383;28;20229;-69
2021/01/09 07:07:30;;;;;;;25.13;11.80;;;;;;;-1.41;100.00;96460.19;4996869;28;20199;-70
2021/01/09 07:10:18;;;;;;;26.60;12.23;;;;;;;-1.38;100.00;96459.16;4997368;28;20195;-70
2021/01/09 07:12:53;;;;;;;27.73;12.63;;;;;;;-1.34;100.00;96460.63;4997659;28;20198;-70
2021/01/09 07:15:20;;;;;;;27.83;12.80;;;;;;;-1.22;100.00;96461.47;4996600;28;20222;-69
2021/01/09 07:17:51;;;;;;;30.67;12.90;;;;;;;-1.38;100.00;96470.31;4996412;28;20206;-70
2021/01/09 07:20:20;;;;;;;30.07;13.50;;;;;;;-1.46;100.00;96476.94;4996847;28;20211;-69
2021/01/09 07:22:49;;;;;;;32.23;12.93;;;;;;;-1.51;100.00;96473.81;4997031;28;20199;-70
2021/01/09 07:25:24;;;;;;;30.40;13.17;;;;;;;-1.51;100.00;96479.00;4996450;28;20234;-70
2021/01/09 07:27:54;;;;;;;30.67;12.90;;;;;;;-1.45;100.00;96474.25;4996811;28;20202;-72
2021/01/09 07:30:22;;;;;;;28.57;12.60;;;;;;;-1.56;100.00;96491.38;4997576;28;20211;-71
2021/01/09 07:32:49;;;;;;;24.47;11.77;;;;;;;-1.63;100.00;96490.09;4996361;28;20213;-72
2021/01/09 07:35:20;;;;;;;28.00;12.07;;;;;;;-1.47;100.00;96493.38;4996269;28;20227;-72
2021/01/09 07:37:46;;;;;;;31.80;13.27;;;;;;;-1.31;100.00;96489.69;4998231;28;21417;-71
2021/01/09 07:40:16;;;;;;;29.57;12.37;;;;;;;-1.35;100.00;96495.13;5001033;28;20210;-72
2021/01/09 07:42:43;;;;;;;30.60;12.70;;;;;;;-1.46;100.00;96502.78;5000432;28;20979;-71
2021/01/09 07:45:11;;;;;;;29.47;12.00;;;;;;;-1.44;100.00;96499.16;4999981;28;20285;-72
2021/01/09 07:47:39;;;;;;;28.23;12.80;;;;;;;-1.31;100.00;96496.59;4999993;28;20252;-69
2021/01/09 07:50:06;;;;;;;32.90;13.23;;;;;;;-1.42;100.00;96505.06;5000353;28;20234;-69
2021/01/09 07:52:33;;;;;;;28.40;13.60;;;;;;;-1.41;100.00;96514.47;5000104;28;20207;-69
2021/01/09 07:55:00;;;;;;;29.43;12.87;;;;;;;-1.34;100.00;96518.31;4999675;28;20284;-69
2021/01/09 07:57:27;;;;;;;32.57;13.23;;;;;;;-1.30;100.00;96511.19;5000858;28;20209;-67
2021/01/09 08:00:17;;;;;;;31.23;13.60;;;;;;;-1.32;100.00;96521.63;4999915;28;20210;-70
2021/01/09 08:02:46;;;;;;;32.00;14.57;;;;;;;-1.38;100.00;96521.19;4981076;28;20206;-69
2021/01/09 08:05:19;;;;;;;30.47;13.80;;;;;;;-1.29;100.00;96510.25;4998581;28;20222;-68
2021/01/09 08:07:47;;;;;;;33.03;13.80;;;;;;;-1.38;100.00;96523.78;4998845;28;20236;-69
2021/01/09 08:10:18;;;;;;;31.07;13.03;;;;;;;-1.28;100.00;96524.84;4999141;28;20217;-69
2021/01/09 08:12:46;;;;;;;29.90;13.20;;;;;;;-1.31;100.00;96527.63;4998543;28;20255;-69
2021/01/09 08:15:13;;;;;;;28.20;12.33;;;;;;;-1.18;100.00;96530.13;4999097;28;20304;-69
2021/01/09 08:17:39;;;;;;;32.13;13.27;;;;;;;-1.09;100.00;96533.88;5000563;28;20202;-69
2021/01/09 08:20:10;;;;;;;31.93;13.60;;;;;;;-0.93;100.00;96540.53;4999405;28;20219;-68
2021/01/09 08:22:38;;;;;;;36.07;14.17;;;;;;;-0.80;100.00;96530.19;4999673;28;20198;-68
2021/01/09 08:25:08;;;;;;;33.23;13.93;;;;;;;-0.70;100.00;96528.66;4999092;28;20262;-70
2021/01/09 08:27:40;;;;;;;35.07;14.80;;;;;;;-0.74;100.00;96540.97;4999615;28;21255;-68
2021/01/09 08:30:11;;;;;;;36.80;16.30;;;;;;;-0.68;100.00;96532.78;4998847;28;20210;-70
2021/01/09 08:32:37;;;;;;;36.13;14.70;;;;;;;-0.59;100.00;96527.84;4999656;28;20357;-70
2021/01/09 08:35:03;;;;;;;30.40;13.63;;;;;;;-0.44;100.00;96536.34;4998951;28;20545;-70
2021/01/09 08:37:29;;;;;;;34.07;14.97;;;;;;;-0.37;100.00;96535.81;4999309;28;20206;-68
2021/01/09 08:39:56;;;;;;;33.90;15.13;;;;;;;-0.23;100.00;96532.28;4998507;28;20199;-69
2021/01/09 08:42:22;;;;;;;33.67;14.93;;;;;;;-0.19;100.00;96536.31;5000241;28;20210;-70
2021/01/09 08:44:48;;;;;;;34.73;15.37;;;;;;;-0.28;100.00;96531.75;4998657;28;20716;-69
2021/01/09 08:47:16;;;;;;;44.30;18.70;;;;;;;-0.14;100.00;96536.81;4999113;28;20261;-69
2021/01/09 08:49:44;;;;;;;41.13;17.40;;;;;;;-0.16;100.00;96536.09;4998424;28;20242;-70
2021/01/09 08:52:11;;;;;;;43.07;17.10;;;;;;;-0.13;100.00;96538.47;4999329;28;20539;-70
2021/01/09 08:54:39;;;;;;;41.47;17.23;;;;;;;-0.06;100.00;96539.69;4999078;28;20250;-70
2021/01/09 08:57:06;;;;;;;42.33;18.03;;;;;;;-0.26;100.00;96540.25;4998305;28;20198;-68
2021/01/09 08:59:33;;;;;;;40.63;17.27;;;;;;;-0.25;100.00;96547.09;4999148;28;20202;-70
2021/01/09 09:02:05;;;;;;;40.27;17.77;;;;;;;-0.23;100.00;96543.47;4998759;28;20203;-69
2021/01/09 09:04:32;;;;;;;41.17;17.30;;;;;;;-0.27;100.00;96551.53;4998833;28;20237;-69
2021/01/09 09:07:00;;;;;;;44.03;18.50;;;;;;;-0.07;100.00;96553.59;4998044;28;20206;-70
2021/01/09 09:09:28;;;;;;;36.93;16.47;;;;;;;0.04;100.00;96547.56;4998522;28;20206;-68
2021/01/09 09:11:55;;;;;;;43.30;18.10;;;;;;;0.12;100.00;96558.22;4998784;28;20208;-69
2021/01/09 09:14:22;;;;;;;39.37;17.30;;;;;;;0.30;100.00;96553.53;4999285;28;20233;-70
2021/01/09 09:16:57;;;;;;;40.53;17.47;;;;;;;0.51;100.00;96544.22;4996491;28;20217;-69
2021/01/09 09:19:23;;;;;;;37.93;16.60;;;;;;;0.64;100.00;96553.63;4997475;28;21042;-68
2021/01/09 09:21:58;;;;;;;38.60;17.50;;;;;;;0.84;100.00;96546.06;4996497;28;20253;-70
2021/01/09 09:24:38;;;;;;;53.17;21.40;;;;;;;0.82;100.00;96557.47;4998439;28;20228;-70
2021/01/09 09:27:19;;;;;;;94.70;31.70;;;;;;;0.86;100.00;96557.13;4997866;28;20208;-69
2021/01/09 09:29:45;;;;;;;50.40;19.67;;;;;;;0.86;100.00;96564.09;4998598;28;20208;-69
2021/01/09 09:32:22;;;;;;;38.37;16.60;;;;;;;0.88;100.00;96557.84;4998597;28;21098;-69
2021/01/09 09:34:48;;;;;;;37.10;15.53;;;;;;;0.93;100.00;96560.94;4998041;28;20227;-70
2021/01/09 09:37:14;;;;;;;39.57;16.77;;;;;;;0.96;100.00;96565.09;4998046;28;20219;-69
2021/01/09 09:39:40;;;;;;;41.80;17.50;;;;;;;1.08;100.00;96548.63;4998289;28;20205;-69
2021/01/09 09:42:07;;;;;;;42.23;18.07;;;;;;;1.16;100.00;96551.47;4997235;28;20234;-70
2021/01/09 09:44:35;;;;;;;49.53;20.97;;;;;;;1.34;100.00;96556.97;4998816;28;20230;-70
2021/01/09 09:47:01;;;;;;;42.37;17.47;;;;;;;1.19;100.00;96561.63;4998251;28;20201;-69
2021/01/09 09:49:28;;;;;;;32.10;14.97;;;;;;;1.22;100.00;96557.88;4997959;28;20576;-70
2021/01/09 09:51:54;;;;;;;33.50;15.37;;;;;;;1.40;100.00;96561.69;4997766;28;20210;-68
2021/01/09 09:54:29;;;;;;;35.03;15.00;;;;;;;1.40;100.00;96561.69;4998424;28;20718;-70
2021/01/09 09:56:55;;;;;;;30.70;14.57;;;;;;;1.41;100.00;96559.91;4996757;28;20205;-69
2021/01/09 09:59:27;;;;;;;33.63;13.80;;;;;;;1.52;100.00;96552.16;4998341;28;20211;-70
2021/01/09 10:01:58;;;;;;;34.30;14.27;;;;;;;1.72;100.00;96557.53;4998308;28;20202;-70
2021/01/09 10:04:24;;;;;;;30.17;13.40;;;;;;;1.60;100.00;96558.44;4997975;28;20218;-69
2021/01/09 10:06:51;;;;;;;24.20;11.60;;;;;;;1.91;99.82;96562.97;4997588;28;20578;-69
2021/01/09 10:09:18;;;;;;;23.23;10.83;;;;;;;1.77;98.65;96554.56;4997623;28;20304;-70
2021/01/09 10:11:47;;;;;;;20.50;10.63;;;;;;;1.91;98.87;96558.59;4998240;28;20206;-70
2021/01/09 10:14:13;;;;;;;25.03;10.03;;;;;;;1.80;98.03;96560.34;4997661;28;20222;-69
2021/01/09 10:16:39;;;;;;;25.87;11.73;;;;;;;1.33;100.00;96560.47;4997595;28;20202;-70
2021/01/09 10:19:06;;;;;;;25.73;11.70;;;;;;;1.55;100.00;96557.94;4997606;28;20225;-69
2021/01/09 10:21:33;;;;;;;29.03;12.53;;;;;;;1.81;100.00;96556.81;4997537;28;20210;-70
2021/01/09 10:24:00;;;;;;;25.53;10.27;;;;;;;2.00;96.90;96555.28;4997421;28;20226;-70
2021/01/09 10:26:27;;;;;;;22.80;10.10;;;;;;;2.44;94.60;96553.50;4997373;28;20218;-68
2021/01/09 10:28:54;;;;;;;19.93;9.93;;;;;;;2.72;93.77;96546.94;4997484;28;20240;-70
2021/01/09 10:31:28;;;;;;;19.63;9.20;;;;;;;2.66;93.14;96547.41;4997981;28;20210;-69
2021/01/09 10:33:54;;;;;;;21.83;10.63;;;;;;;2.93;92.21;96540.00;4997569;28;20226;-70
2021/01/09 10:36:22;;;;;;;20.70;9.70;;;;;;;3.02;89.50;96546.13;4996652;28;20289;-69
2021/01/09 10:38:48;;;;;;;21.17;10.10;;;;;;;3.15;89.19;96538.13;4997248;28;20206;-69
2021/01/09 10:41:14;;;;;;;22.07;9.83;;;;;;;2.49;91.33;96540.13;4998352;28;20214;-69
2021/01/09 10:43:40;;;;;;;24.37;10.23;;;;;;;2.39;92.03;96543.56;4996705;28;20207;-69
2021/01/09 10:46:07;;;;;;;22.63;10.53;;;;;;;2.56;92.53;96536.09;4996959;28;20224;-68
2021/01/09 10:48:33;;;;;;;23.30;10.73;;;;;;;2.70;91.58;96534.03;4997782;28;20206;-70
2021/01/09 10:50:59;;;;;;;23.43;10.73;;;;;;;2.57;90.99;96538.56;4997061;28;21110;-70
2021/01/09 10:53:25;;;;;;;23.90;11.40;;;;;;;2.54;91.98;96528.41;4997431;28;20604;-69
2021/01/09 10:55:55;;;;;;;22.93;11.10;;;;;;;2.51;93.36;96539.06;4997005;28;20712;-69
2021/01/09 10:58:21;;;;;;;24.87;10.40;;;;;;;2.71;91.37;96535.72;4997600;28;20237;-70
2021/01/09 11:00:47;;;;;;;17.73;8.80;;;;;;;2.97;90.22;96520.59;4997624;28;20206;-70
2021/01/09 11:03:14;;;;;;;18.17;9.60;;;;;;;3.23;89.39;96520.09;4996599;28;20237;-70
2021/01/09 11:05:41;;;;;;;19.57;10.10;;;;;;;2.73;89.47;96523.38;4995755;28;20690;-69
2021/01/09 11:08:07;;;;;;;20.00;9.63;;;;;;;2.76;89.25;96523.16;4996930;28;20214;-69
2021/01/09 11:10:33;;;;;;;20.53;9.77;;;;;;;3.20;89.59;96513.38;4997032;28;20317;-69
2021/01/09 11:12:59;;;;;;;19.67;9.97;;;;;;;2.89;91.32;96516.00;4998715;28;20712;-70
2021/01/09 11:15:25;;;;;;;22.57;10.00;;;;;;;3.50;88.16;96515.22;5000754;28;20329;-70
2021/01/09 11:17:50;;;;;;;19.83;9.37;;;;;;;3.27;85.90;96509.31;5000609;28;20229;-70
2021/01/09 11:20:17;;;;;;;20.77;10.13;;;;;;;3.29;87.71;96511.81;5001304;28;20206;-70